Terminal Aerodrome Forecast
Issued by NWS Atlanta, GA

Home | Current Version | Previous Version | Text Only | Print | Product List | Glossary On
Versions: 1 2 3 4 5 6 7 8 9 10 11 12 13 14 15 16 17 18 19 20 21 22 23 24 25 26 27 28 29 30 31 32 33 34 35 36 37
000
FTAK31 PAJN 172000 AAA
TAFAHN
TAF AMD
PAHN 172000Z 1720/1818 29012KT P6SM VCSH FEW030 BKN050 OVC080
     FM172200 29008KT P6SM -RA FEW025 BKN040 OVC080
     FM180000 VRB06KT P6SM -RA SCT025 BKN035 OVC060
     FM180900 09010KT P6SM -RA BKN025 OVC050
     FM181400 09010G18KT P6SM -RA BKN025 OVC050
      AMD LTD TO CLD VIS AND WIND=

USA.gov is the U.S. government's official web portal to all federal, state and local government web resources and services.